Time;durP1;ratioP1;P1;durP2;ratioP2;P2;SDS_P1;SDS_P2;PMS_P1;PMS_P2;Temp;Humidity;BMP_temperature;BMP_pressure;BME280_temperature;BME280_humidity;BME280_pressure;Samples;Min_cycle;Max_cycle;Signal;HPM_P1;HPM_P2
2023/02/05 00:00:16;;;;;;;12.70;11.07;;;4.40;99.90;;;;;;5008839;28;20050;-66
2023/02/05 00:02:42;;;;;;;15.82;10.45;;;4.30;99.90;;;;;;5011819;28;20066;-66
2023/02/05 00:05:08;;;;;;;17.55;10.65;;;4.40;99.90;;;;;;5010317;28;20494;-66
2023/02/05 00:07:34;;;;;;;18.20;10.20;;;4.40;99.90;;;;;;5013134;28;20038;-66
2023/02/05 00:10:00;;;;;;;16.58;10.75;;;4.40;99.90;;;;;;4993064;28;20141;-66
2023/02/05 00:12:25;;;;;;;17.08;11.20;;;4.40;99.90;;;;;;5012207;28;20591;-66
2023/02/05 00:14:51;;;;;;;16.77;10.30;;;4.40;99.90;;;;;;4992974;28;20050;-66
2023/02/05 00:17:17;;;;;;;17.70;10.32;;;4.40;99.90;;;;;;5011907;28;20551;-66
2023/02/05 00:19:43;;;;;;;18.02;10.65;;;4.40;99.90;;;;;;5010459;28;20113;-66
2023/02/05 00:22:09;;;;;;;18.38;11.57;;;4.40;99.90;;;;;;5011912;28;20116;-66
2023/02/05 00:24:34;;;;;;;18.55;10.50;;;4.40;99.90;;;;;;5007834;28;20045;-66
2023/02/05 00:27:00;;;;;;;20.70;10.77;;;4.50;99.90;;;;;;5007435;28;20049;-66
2023/02/05 00:29:26;;;;;;;17.23;10.55;;;4.50;99.90;;;;;;4992874;28;20052;-66
2023/02/05 00:31:51;;;;;;;18.90;11.55;;;4.50;99.90;;;;;;5012167;28;20045;-66
2023/02/05 00:34:17;;;;;;;19.60;11.65;;;4.50;99.90;;;;;;5012303;28;20045;-66
2023/02/05 00:36:43;;;;;;;16.77;10.50;;;4.50;99.90;;;;;;5011409;28;20369;-66
2023/02/05 00:39:10;;;;;;;22.23;11.60;;;4.50;99.90;;;;;;5011797;28;20529;-66
2023/02/05 00:41:36;;;;;;;25.63;11.40;;;4.50;99.90;;;;;;5010987;28;20112;-66
2023/02/05 00:44:03;;;;;;;20.30;11.50;;;4.60;99.90;;;;;;5012859;28;20049;-66
2023/02/05 00:46:29;;;;;;;22.73;11.93;;;4.60;99.90;;;;;;5010752;28;20068;-66
2023/02/05 00:48:55;;;;;;;21.13;11.90;;;4.60;99.90;;;;;;5011745;28;20038;-66
2023/02/05 00:51:21;;;;;;;25.17;11.70;;;4.70;99.90;;;;;;5011516;28;20042;-66
2023/02/05 00:53:46;;;;;;;22.98;12.32;;;4.70;99.90;;;;;;5011105;28;20038;-66
2023/02/05 00:56:12;;;;;;;22.52;12.65;;;4.80;99.90;;;;;;5011732;28;20038;-66
2023/02/05 00:58:38;;;;;;;20.80;11.05;;;4.80;99.90;;;;;;5011941;28;20599;-66
2023/02/05 01:01:04;;;;;;;24.05;11.80;;;4.90;99.90;;;;;;5011657;28;20068;-66
2023/02/05 01:03:30;;;;;;;20.63;11.38;;;4.80;99.90;;;;;;5009862;28;20076;-66
2023/02/05 01:05:56;;;;;;;23.23;11.77;;;4.90;99.90;;;;;;5008287;28;20033;-66
2023/02/05 01:08:22;;;;;;;24.20;11.23;;;4.90;99.90;;;;;;5008314;28;20128;-66
2023/02/05 01:10:50;;;;;;;19.27;11.27;;;4.90;99.90;;;;;;5011086;28;20045;-66
2023/02/05 01:13:17;;;;;;;22.15;11.95;;;4.90;99.90;;;;;;4992098;28;20078;-66
2023/02/05 01:15:43;;;;;;;21.65;11.05;;;5.00;99.90;;;;;;5011665;28;20426;-66
2023/02/05 01:18:10;;;;;;;25.58;11.57;;;4.90;99.90;;;;;;5011907;28;20038;-66
2023/02/05 01:20:38;;;;;;;27.60;11.80;;;5.00;99.90;;;;;;5010430;28;20054;-66
2023/02/05 01:23:04;;;;;;;26.38;12.63;;;5.00;99.90;;;;;;5011030;28;20057;-66
2023/02/05 01:25:30;;;;;;;27.02;12.50;;;5.00;99.90;;;;;;5010444;28;20077;-66
2023/02/05 01:27:56;;;;;;;24.73;11.57;;;5.00;99.90;;;;;;4993984;28;20081;-66
2023/02/05 01:30:22;;;;;;;25.83;12.02;;;5.10;99.90;;;;;;5011811;28;20034;-66
2023/02/05 01:32:48;;;;;;;27.95;13.40;;;5.10;99.90;;;;;;5011526;28;20037;-66
2023/02/05 01:35:13;;;;;;;27.48;12.50;;;5.10;99.90;;;;;;4991924;28;20038;-66
2023/02/05 01:37:39;;;;;;;26.63;12.52;;;5.10;99.90;;;;;;5011220;28;20077;-66
2023/02/05 01:40:06;;;;;;;24.25;12.15;;;5.20;99.90;;;;;;5011042;28;20053;-66
2023/02/05 01:42:32;;;;;;;22.92;11.93;;;5.20;99.90;;;;;;5008362;28;20041;-66
2023/02/05 01:45:23;;;;;;;23.20;12.02;;;5.20;99.90;;;;;;5006220;28;20038;-66
2023/02/05 01:47:52;;;;;;;26.80;13.10;;;5.20;99.90;;;;;;5010257;28;20485;-66
2023/02/05 01:50:26;;;;;;;27.48;12.43;;;5.30;99.90;;;;;;5008918;28;20528;-66
2023/02/05 01:52:53;;;;;;;26.75;12.13;;;5.30;99.90;;;;;;5010748;28;20057;-66
2023/02/05 01:55:20;;;;;;;27.80;12.88;;;5.30;99.90;;;;;;5009521;28;20069;-67
2023/02/05 01:57:48;;;;;;;27.80;12.82;;;5.30;99.90;;;;;;4993782;28;20125;-68
2023/02/05 02:00:13;;;;;;;30.45;13.38;;;5.30;99.90;;;;;;5010632;28;20041;-67
2023/02/05 02:02:39;;;;;;;33.10;13.68;;;5.30;99.90;;;;;;5011091;28;20091;-67
2023/02/05 02:05:11;;;;;;;29.90;14.25;;;5.30;99.90;;;;;;4993162;28;20041;-67
2023/02/05 02:07:37;;;;;;;28.25;13.80;;;5.30;99.90;;;;;;5011966;28;20100;-67
2023/02/05 02:10:04;;;;;;;26.90;13.73;;;5.30;99.90;;;;;;5010340;28;20034;-67
2023/02/05 02:12:35;;;;;;;33.95;14.43;;;5.30;99.90;;;;;;5011712;28;20038;-68
2023/02/05 02:15:06;;;;;;;34.17;13.60;;;5.30;99.90;;;;;;4990819;28;20674;-68
2023/02/05 02:17:38;;;;;;;36.00;14.75;;;5.20;99.90;;;;;;5011278;28;20056;-68
2023/02/05 02:20:06;;;;;;;30.95;13.60;;;5.30;99.90;;;;;;5008736;28;20042;-68
2023/02/05 02:22:44;;;;;;;31.60;14.65;;;5.30;99.90;;;;;;4993262;28;20141;-68
2023/02/05 02:25:48;;;;;;;36.38;15.18;;;5.30;99.90;;;;;;5013502;28;20390;-67
2023/02/05 02:28:42;;;;;;;28.73;14.90;;;5.30;99.90;;;;;;4997287;28;20056;-68
2023/02/05 02:31:12;;;;;;;31.52;14.07;;;5.30;99.90;;;;;;4998919;28;20104;-68
2023/02/05 02:33:55;;;;;;;42.45;15.20;;;5.30;99.90;;;;;;5015593;28;20509;-68
2023/02/05 02:36:34;;;;;;;36.58;14.32;;;5.30;99.90;;;;;;5016524;28;20046;-68
2023/02/05 02:39:12;;;;;;;45.67;15.18;;;5.30;99.90;;;;;;4999292;28;20034;-68
2023/02/05 02:41:52;;;;;;;33.30;15.02;;;5.40;99.90;;;;;;4996612;28;20183;-69
2023/02/05 02:44:25;;;;;;;38.00;15.30;;;5.40;99.90;;;;;;5013421;28;20686;-69
2023/02/05 02:46:57;;;;;;;37.85;15.90;;;5.40;99.90;;;;;;4996493;28;20048;-70
2023/02/05 02:49:46;;;;;;;36.28;15.90;;;5.40;99.90;;;;;;4990285;28;20103;-69
2023/02/05 02:52:16;;;;;;;43.17;16.42;;;5.40;99.90;;;;;;5011086;28;20144;-69
2023/02/05 02:54:44;;;;;;;44.70;17.45;;;5.50;99.90;;;;;;4979404;28;20046;-68
2023/02/05 02:57:13;;;;;;;50.88;17.40;;;5.50;99.90;;;;;;4996880;28;20042;-68
2023/02/05 02:59:41;;;;;;;45.53;18.67;;;5.50;99.90;;;;;;4994962;28;20107;-68
2023/02/05 03:02:11;;;;;;;51.45;20.63;;;5.50;99.90;;;;;;4994423;28;20034;-68
2023/02/05 03:04:40;;;;;;;52.45;20.70;;;5.60;99.90;;;;;;5012930;28;20049;-68
2023/02/05 03:07:17;;;;;;;56.55;21.17;;;5.60;99.90;;;;;;4995601;28;20077;-68
2023/02/05 03:10:31;;;;;;;61.90;20.13;;;5.70;99.90;;;;;;4994295;28;20050;-68
2023/02/05 03:12:56;;;;;;;61.25;21.35;;;5.70;99.90;;;;;;4973648;28;20051;-68
2023/02/05 03:15:22;;;;;;;63.15;21.20;;;5.70;99.90;;;;;;4977865;28;20444;-68
2023/02/05 03:17:51;;;;;;;80.25;22.90;;;5.80;99.90;;;;;;4995083;28;20502;-68
2023/02/05 03:20:30;;;;;;;61.72;22.33;;;5.80;99.90;;;;;;5012020;28;20037;-68
2023/02/05 03:22:56;;;;;;;63.97;23.17;;;5.80;99.90;;;;;;5012748;28;20385;-68
2023/02/05 03:25:24;;;;;;;67.80;22.20;;;5.80;99.90;;;;;;5013430;28;20104;-68
2023/02/05 03:27:51;;;;;;;61.53;22.15;;;5.90;99.90;;;;;;4995943;28;20104;-68
2023/02/05 03:30:17;;;;;;;56.05;23.15;;;5.90;99.90;;;;;;4995166;28;20140;-68
2023/02/05 03:33:04;;;;;;;62.50;22.13;;;5.90;99.90;;;;;;5013277;28;20478;-68
2023/02/05 03:35:38;;;;;;;71.97;24.48;;;6.00;99.90;;;;;;4978744;28;20467;-68
2023/02/05 03:38:35;;;;;;;62.92;22.52;;;5.90;99.90;;;;;;4994393;28;20076;-68
2023/02/05 03:41:55;;;;;;;73.13;24.27;;;6.00;99.90;;;;;;4994408;28;20466;-68
2023/02/05 03:44:52;;;;;;;63.85;21.67;;;6.00;99.90;;;;;;5013145;28;20072;-68
2023/02/05 03:47:25;;;;;;;62.85;23.67;;;6.00;99.90;;;;;;4994184;28;20053;-68
2023/02/05 03:50:22;;;;;;;62.47;23.38;;;6.00;99.90;;;;;;5011344;28;20037;-68
2023/02/05 03:52:56;;;;;;;78.30;24.00;;;6.00;99.90;;;;;;4994499;28;20148;-67
2023/02/05 03:55:26;;;;;;;58.08;22.92;;;6.00;99.90;;;;;;4995285;28;20045;-68
2023/02/05 03:58:11;;;;;;;79.28;26.58;;;6.00;99.90;;;;;;4994387;28;20046;-68
2023/02/05 04:00:39;;;;;;;80.80;24.00;;;6.00;99.90;;;;;;5010341;28;20038;-68
2023/02/05 04:03:05;;;;;;;62.45;24.17;;;6.00;99.90;;;;;;5011955;28;20080;-68
2023/02/05 04:05:31;;;;;;;75.85;25.35;;;6.00;99.90;;;;;;5013690;28;20073;-68
2023/02/05 04:07:56;;;;;;;77.30;26.30;;;6.00;99.90;;;;;;5004750;28;20046;-68
2023/02/05 04:10:22;;;;;;;61.08;23.50;;;6.10;99.90;;;;;;5011895;28;20072;-68
2023/02/05 04:12:48;;;;;;;69.70;24.98;;;6.10;99.90;;;;;;5012644;28;20347;-68
2023/02/05 04:15:14;;;;;;;82.40;25.75;;;6.00;99.90;;;;;;4995576;28;20123;-68
2023/02/05 04:17:40;;;;;;;70.40;25.02;;;6.10;99.90;;;;;;5012363;28;20053;-68
2023/02/05 04:20:06;;;;;;;67.85;25.02;;;6.10;99.90;;;;;;4993298;28;20034;-68
2023/02/05 04:22:32;;;;;;;59.40;24.55;;;6.10;99.90;;;;;;5013263;28;20157;-68
2023/02/05 04:24:58;;;;;;;56.40;24.00;;;6.10;99.90;;;;;;4994979;28;20065;-68
2023/02/05 04:27:23;;;;;;;61.45;25.65;;;6.10;99.90;;;;;;5012818;28;20644;-68
2023/02/05 04:29:49;;;;;;;53.17;23.73;;;6.10;99.90;;;;;;5012218;28;20132;-68
2023/02/05 04:32:15;;;;;;;58.30;25.27;;;6.10;99.90;;;;;;5012977;28;20116;-68
2023/02/05 04:34:41;;;;;;;61.35;24.63;;;6.10;99.90;;;;;;4994057;28;20081;-68
2023/02/05 04:37:06;;;;;;;72.57;24.75;;;6.10;99.90;;;;;;5010560;28;20044;-68
2023/02/05 04:39:32;;;;;;;53.17;23.60;;;6.10;99.90;;;;;;5009968;28;20103;-68
2023/02/05 04:42:00;;;;;;;60.35;24.75;;;6.10;99.90;;;;;;5012670;28;20041;-68
2023/02/05 04:44:26;;;;;;;64.95;24.63;;;6.20;99.90;;;;;;4994401;28;20046;-68
2023/02/05 04:46:52;;;;;;;60.78;25.08;;;6.20;99.90;;;;;;4991931;28;20050;-68
2023/02/05 04:49:18;;;;;;;59.95;24.73;;;6.20;99.90;;;;;;5012170;28;20041;-69
2023/02/05 04:51:44;;;;;;;65.18;25.40;;;6.20;99.90;;;;;;4995583;28;20067;-69
2023/02/05 04:54:09;;;;;;;49.75;24.48;;;6.20;99.90;;;;;;5013234;28;20160;-68
2023/02/05 04:56:35;;;;;;;61.53;24.48;;;6.30;99.90;;;;;;5010638;28;20042;-69
2023/02/05 04:59:01;;;;;;;52.85;24.98;;;6.30;99.90;;;;;;4995524;28;20458;-69
2023/02/05 05:01:27;;;;;;;56.67;24.17;;;6.30;99.90;;;;;;4997416;28;20034;-69
2023/02/05 05:03:52;;;;;;;64.60;25.55;;;6.40;99.90;;;;;;4999476;28;20042;-69
2023/02/05 05:06:18;;;;;;;60.13;24.77;;;6.40;99.90;;;;;;5015806;28;20081;-70
2023/02/05 05:08:44;;;;;;;56.10;23.60;;;6.40;99.90;;;;;;5001022;28;20061;-69
2023/02/05 05:11:13;;;;;;;55.92;24.45;;;6.40;99.90;;;;;;5005523;28;20038;-69
2023/02/05 05:13:39;;;;;;;50.38;21.38;;;6.40;99.90;;;;;;5005758;28;20078;-69
2023/02/05 05:16:05;;;;;;;49.50;20.77;;;6.40;99.90;;;;;;5021422;28;20034;-69
2023/02/05 05:18:31;;;;;;;46.42;20.55;;;6.40;99.90;;;;;;5021203;28;20037;-69
2023/02/05 05:20:57;;;;;;;48.88;20.75;;;6.40;99.90;;;;;;5000527;28;20045;-69
2023/02/05 05:23:23;;;;;;;44.88;21.02;;;6.40;99.90;;;;;;5015802;28;20044;-69
2023/02/05 05:25:49;;;;;;;44.47;19.80;;;6.40;99.90;;;;;;5020355;28;20033;-69
2023/02/05 05:28:15;;;;;;;43.60;18.67;;;6.50;99.90;;;;;;5003023;28;20042;-69
2023/02/05 05:30:42;;;;;;;41.67;18.85;;;6.40;99.90;;;;;;5001747;28;20041;-69
2023/02/05 05:33:08;;;;;;;41.90;18.35;;;6.40;99.90;;;;;;5002129;28;20053;-69
2023/02/05 05:35:34;;;;;;;47.53;18.50;;;6.50;99.90;;;;;;4997469;28;20045;-68
2023/02/05 05:38:01;;;;;;;37.20;17.58;;;6.50;99.90;;;;;;5016014;28;20030;-69
2023/02/05 05:45:58;;;;;;;32.65;14.55;;;6.50;99.90;;;;;;5019992;28;20064;-69
2023/02/05 05:48:24;;;;;;;27.85;13.85;;;6.50;99.90;;;;;;5001510;28;20033;-69
2023/02/05 05:50:49;;;;;;;21.42;11.23;;;6.50;99.90;;;;;;5016837;28;20069;-69
2023/02/05 05:53:15;;;;;;;16.35;7.82;;;6.50;99.90;;;;;;5001114;28;20033;-72
2023/02/05 05:55:41;;;;;;;11.00;4.70;;;6.50;99.90;;;;;;4995395;28;20033;-69
2023/02/05 05:58:08;;;;;;;12.85;4.57;;;6.40;99.90;;;;;;5016737;28;20034;-69
2023/02/05 06:00:34;;;;;;;10.15;3.80;;;6.40;99.90;;;;;;4997418;28;20127;-69
2023/02/05 06:03:00;;;;;;;9.07;2.30;;;6.40;99.90;;;;;;4998972;28;20050;-69
2023/02/05 06:05:25;;;;;;;6.40;1.80;;;6.40;99.90;;;;;;5004919;28;20073;-69
2023/02/05 06:07:51;;;;;;;9.27;2.00;;;6.30;99.90;;;;;;5021402;28;20041;-70
2023/02/05 06:10:17;;;;;;;12.57;1.50;;;6.30;99.90;;;;;;5004506;28;20478;-70
2023/02/05 06:12:43;;;;;;;7.53;1.30;;;6.30;99.90;;;;;;5007456;28;20052;-70
2023/02/05 06:15:09;;;;;;;10.32;1.33;;;6.20;99.90;;;;;;5008477;28;20529;-70
2023/02/05 06:17:34;;;;;;;11.55;1.10;;;6.20;99.90;;;;;;5006506;28;20042;-69
2023/02/05 06:20:00;;;;;;;8.15;1.20;;;6.10;99.90;;;;;;5023681;28;20093;-69
2023/02/05 06:22:26;;;;;;;16.05;1.17;;;6.10;99.90;;;;;;5003699;28;20049;-70
2023/02/05 06:24:51;;;;;;;13.85;1.98;;;6.10;99.90;;;;;;5002662;28;20041;-70
2023/02/05 06:27:17;;;;;;;9.95;2.15;;;6.00;99.90;;;;;;5020768;28;20042;-70
2023/02/05 06:29:43;;;;;;;7.28;1.00;;;6.00;99.90;;;;;;5002952;28;20041;-70
2023/02/05 06:32:08;;;;;;;8.73;0.88;;;6.00;99.90;;;;;;5001825;28;20052;-70
2023/02/05 06:34:34;;;;;;;9.13;1.42;;;5.90;99.90;;;;;;5019958;28;20053;-70
2023/02/05 06:37:00;;;;;;;10.77;1.13;;;5.90;99.90;;;;;;5002343;28;20485;-70
2023/02/05 06:39:26;;;;;;;3.80;0.80;;;5.80;99.90;;;;;;5018384;28;20034;-70
2023/02/05 06:41:51;;;;;;;10.32;1.25;;;5.80;99.90;;;;;;5015396;28;20088;-69
2023/02/05 06:44:17;;;;;;;7.97;0.98;;;5.80;99.90;;;;;;5009793;28;20054;-69
2023/02/05 06:46:43;;;;;;;8.82;0.88;;;5.80;99.90;;;;;;4999701;28;20180;-69
2023/02/05 06:49:08;;;;;;;10.55;0.77;;;5.80;99.90;;;;;;4996876;28;20062;-69
2023/02/05 06:51:34;;;;;;;6.32;0.70;;;5.70;99.90;;;;;;5015674;28;20532;-69
2023/02/05 06:54:00;;;;;;;12.57;1.23;;;5.70;99.90;;;;;;5015242;28;20038;-69
2023/02/05 06:56:25;;;;;;;10.55;1.42;;;5.70;99.90;;;;;;4997240;28;20050;-69
2023/02/05 06:58:51;;;;;;;16.38;1.38;;;5.70;99.90;;;;;;5015668;28;20042;-69
2023/02/05 07:01:17;;;;;;;7.57;1.13;;;5.70;99.90;;;;;;4997296;28;20049;-69
2023/02/05 07:03:43;;;;;;;12.35;1.27;;;5.70;99.90;;;;;;5015672;28;20048;-69
2023/02/05 07:06:09;;;;;;;11.27;1.02;;;5.70;99.90;;;;;;5013506;28;20030;-69
2023/02/05 07:08:35;;;;;;;16.70;1.48;;;5.70;99.90;;;;;;4999059;28;20775;-69
2023/02/05 07:11:01;;;;;;;14.38;1.42;;;5.70;99.90;;;;;;5017873;28;20283;-69
2023/02/05 07:13:29;;;;;;;12.30;1.20;;;5.70;99.90;;;;;;5003870;28;20064;-69
2023/02/05 07:15:54;;;;;;;9.75;1.30;;;5.70;99.90;;;;;;5005502;28;20121;-69
2023/02/05 07:18:20;;;;;;;13.23;1.17;;;5.70;99.90;;;;;;5005110;28;20084;-69
2023/02/05 07:20:47;;;;;;;11.32;1.60;;;5.70;99.90;;;;;;5020092;28;20040;-69
2023/02/05 07:23:12;;;;;;;17.90;1.52;;;5.70;99.90;;;;;;5002438;28;20054;-69
2023/02/05 07:25:38;;;;;;;10.82;1.52;;;5.70;99.90;;;;;;5022842;28;20354;-70
2023/02/05 07:28:05;;;;;;;10.68;1.13;;;5.80;99.90;;;;;;5003801;28;20501;-70
2023/02/05 07:30:32;;;;;;;10.02;1.08;;;5.80;99.90;;;;;;4999389;28;20042;-69
2023/02/05 07:32:59;;;;;;;10.73;1.00;;;5.80;99.90;;;;;;4988086;28;20045;-69
2023/02/05 07:35:25;;;;;;;8.43;1.17;;;5.80;99.90;;;;;;4998784;28;20049;-69
2023/02/05 07:37:51;;;;;;;13.25;1.27;;;5.80;99.90;;;;;;5015822;28;20060;-69
2023/02/05 07:40:18;;;;;;;13.55;1.50;;;5.80;99.90;;;;;;4999778;28;20046;-69
2023/02/05 07:42:44;;;;;;;13.25;2.75;;;5.80;99.90;;;;;;5014988;28;20494;-69
2023/02/05 07:45:10;;;;;;;11.05;1.80;;;5.80;99.90;;;;;;4999251;28;20044;-69
2023/02/05 07:47:35;;;;;;;11.13;1.50;;;5.90;99.90;;;;;;5012875;28;20145;-69
2023/02/05 07:50:03;;;;;;;9.98;1.08;;;5.90;99.90;;;;;;5009491;28;20046;-68
2023/02/05 07:52:29;;;;;;;12.82;1.80;;;5.90;99.90;;;;;;5005429;28;20069;-69
2023/02/05 07:54:55;;;;;;;8.15;1.00;;;5.90;99.90;;;;;;4986869;28;20080;-69
2023/02/05 07:57:20;;;;;;;10.57;1.40;;;6.00;99.90;;;;;;4996118;28;20030;-69
2023/02/05 07:59:46;;;;;;;13.40;1.38;;;6.00;99.90;;;;;;4993618;28;20065;-69
2023/02/05 08:02:12;;;;;;;12.77;1.80;;;6.00;99.90;;;;;;4990061;28;20479;-69
2023/02/05 08:04:38;;;;;;;14.55;1.50;;;6.00;99.90;;;;;;5003797;28;20038;-69
2023/02/05 08:07:04;;;;;;;16.50;1.67;;;6.00;99.90;;;;;;5011720;28;20076;-69
2023/02/05 08:09:29;;;;;;;14.52;1.48;;;6.10;99.90;;;;;;4998240;28;20405;-68
2023/02/05 08:11:55;;;;;;;14.10;2.10;;;6.00;99.90;;;;;;5017441;28;20038;-69
2023/02/05 08:14:21;;;;;;;18.88;2.08;;;6.10;99.90;;;;;;5002252;28;20042;-69
2023/02/05 08:16:47;;;;;;;20.40;2.47;;;6.10;99.90;;;;;;5002176;28;20068;-70
2023/02/05 08:19:14;;;;;;;12.10;1.90;;;6.10;99.90;;;;;;5003185;28;20034;-71
2023/02/05 08:21:40;;;;;;;13.57;1.67;;;6.10;99.90;;;;;;5008014;28;20057;-72
2023/02/05 08:24:06;;;;;;;21.40;2.40;;;6.10;99.90;;;;;;5007150;28;20030;-70
2023/02/05 08:26:32;;;;;;;15.60;1.98;;;6.10;99.90;;;;;;5007647;28;20505;-71
2023/02/05 08:28:58;;;;;;;15.60;2.72;;;6.10;99.90;;;;;;5010804;28;20053;-72
2023/02/05 08:31:24;;;;;;;18.02;2.13;;;6.10;99.90;;;;;;4995478;28;20135;-72
2023/02/05 08:33:53;;;;;;;11.57;1.85;;;6.10;99.90;;;;;;4995423;28;20049;-71
2023/02/05 08:36:19;;;;;;;17.05;1.95;;;6.10;99.90;;;;;;4993030;28;20497;-72
2023/02/05 08:38:45;;;;;;;15.73;2.47;;;6.00;99.90;;;;;;4994098;28;20076;-72
2023/02/05 08:41:11;;;;;;;17.70;2.08;;;6.10;99.90;;;;;;5008963;28;20403;-72
2023/02/05 08:43:39;;;;;;;13.32;2.28;;;6.10;99.90;;;;;;4989721;28;20444;-72
2023/02/05 08:46:05;;;;;;;16.92;2.47;;;6.10;99.90;;;;;;4993595;28;20103;-71
2023/02/05 08:48:31;;;;;;;19.17;2.58;;;6.10;99.90;;;;;;5002541;28;20038;-72
2023/02/05 08:50:56;;;;;;;16.77;2.10;;;6.10;99.90;;;;;;4992968;28;20104;-71
2023/02/05 08:53:22;;;;;;;22.67;2.50;;;6.10;99.90;;;;;;4993378;28;20038;-72
2023/02/05 08:55:59;;;;;;;15.60;1.90;;;6.20;99.90;;;;;;4994139;28;20458;-71
2023/02/05 08:58:25;;;;;;;18.58;2.70;;;6.20;99.90;;;;;;4993151;28;20124;-71
2023/02/05 09:00:51;;;;;;;15.57;2.72;;;6.20;99.90;;;;;;4994139;28;20128;-71
2023/02/05 09:03:17;;;;;;;14.90;1.73;;;6.10;99.90;;;;;;4993171;28;20046;-71
2023/02/05 09:05:43;;;;;;;17.25;1.98;;;6.20;99.90;;;;;;4995950;28;20092;-71
2023/02/05 09:08:09;;;;;;;14.18;2.10;;;6.20;99.90;;;;;;5012212;28;20124;-71
2023/02/05 09:10:35;;;;;;;21.27;3.03;;;6.30;99.90;;;;;;4997216;28;20716;-70
2023/02/05 09:13:01;;;;;;;17.48;2.85;;;6.30;99.90;;;;;;5002955;28;20097;-72
2023/02/05 09:15:28;;;;;;;22.38;2.60;;;6.30;99.90;;;;;;5003589;28;20096;-71
2023/02/05 09:17:53;;;;;;;20.05;2.55;;;6.40;99.90;;;;;;5007512;28;20097;-73
2023/02/05 09:20:19;;;;;;;19.90;3.72;;;6.40;99.90;;;;;;5009275;28;20046;-71
2023/02/05 09:22:45;;;;;;;15.93;1.98;;;6.40;99.90;;;;;;5004620;28;20038;-71
2023/02/05 09:25:11;;;;;;;20.48;2.58;;;6.40;99.90;;;;;;5009611;28;20189;-71
2023/02/05 09:27:36;;;;;;;26.10;3.60;;;6.40;99.90;;;;;;5007766;28;20081;-70
2023/02/05 09:30:03;;;;;;;21.35;3.08;;;6.40;99.90;;;;;;5024047;28;20034;-70
2023/02/05 09:32:28;;;;;;;28.58;3.15;;;6.40;99.90;;;;;;5007371;28;20052;-70
2023/02/05 09:34:54;;;;;;;32.38;4.10;;;6.40;99.90;;;;;;5011625;28;20120;-70
2023/02/05 09:37:21;;;;;;;21.65;3.55;;;6.40;99.90;;;;;;5004783;28;20042;-70
2023/02/05 09:39:47;;;;;;;30.02;3.85;;;6.50;99.90;;;;;;5027295;28;20127;-70
2023/02/05 09:42:45;;;;;;;19.77;3.33;;;6.50;99.90;;;;;;5012004;28;20042;-70
2023/02/05 09:45:41;;;;;;;25.45;3.25;;;6.50;99.90;;;;;;5025223;28;20052;-70
2023/02/05 09:48:22;;;;;;;17.00;2.42;;;6.50;99.90;;;;;;5003271;28;20073;-70
2023/02/05 09:50:48;;;;;;;25.75;3.70;;;6.50;99.90;;;;;;5025850;28;20072;-70
2023/02/05 09:53:19;;;;;;;28.42;3.75;;;6.50;99.90;;;;;;5026936;28;20045;-70
2023/02/05 09:55:47;;;;;;;21.38;3.58;;;6.50;99.90;;;;;;5008820;28;20414;-69
2023/02/05 09:58:17;;;;;;;21.52;3.40;;;6.50;99.90;;;;;;5002294;28;20041;-70
2023/02/05 10:00:49;;;;;;;18.92;3.25;;;6.70;99.90;;;;;;5021466;28;20073;-70
2023/02/05 10:03:34;;;;;;;16.63;2.90;;;7.50;99.90;;;;;;5002472;28;20049;-69
2023/02/05 10:06:06;;;;;;;21.00;2.92;;;8.50;99.90;;;;;;5005172;28;20050;-71
2023/02/05 10:08:51;;;;;;;18.42;3.10;;;9.10;99.90;;;;;;5002350;28;20086;-70
2023/02/05 10:11:28;;;;;;;18.20;2.30;;;8.90;99.90;;;;;;5014380;28;20049;-70
2023/02/05 10:14:26;;;;;;;21.35;3.10;;;8.90;99.90;;;;;;4997868;28;20415;-70
2023/02/05 10:17:36;;;;;;;18.13;3.00;;;8.60;99.90;;;;;;4997809;28;20034;-70
2023/02/05 10:20:05;;;;;;;17.50;2.80;;;8.50;99.90;;;;;;5006229;28;20035;-70
2023/02/05 10:23:05;;;;;;;14.82;3.03;;;8.30;99.90;;;;;;4986174;28;20137;-71
2023/02/05 10:25:50;;;;;;;17.63;2.63;;;8.00;99.90;;;;;;4975273;28;20049;-69
2023/02/05 10:28:46;;;;;;;17.80;3.00;;;7.80;99.90;;;;;;5012567;28;20184;-70
2023/02/05 10:31:36;;;;;;;13.02;2.05;;;8.10;99.90;;;;;;4984305;28;20483;-70
2023/02/05 10:34:28;;;;;;;23.90;4.07;;;8.60;99.90;;;;;;4990752;28;20047;-70
2023/02/05 10:36:53;;;;;;;21.25;3.70;;;9.00;99.90;;;;;;4976321;28;20536;-70
2023/02/05 10:39:24;;;;;;;22.13;3.58;;;9.20;99.90;;;;;;5010771;28;20050;-71
2023/02/05 10:42:25;;;;;;;22.77;3.30;;;9.30;99.90;;;;;;4993424;28;20053;-70
2023/02/05 10:45:13;;;;;;;21.23;3.58;;;9.00;99.90;;;;;;4993970;28;20042;-70
2023/02/05 10:47:42;;;;;;;29.33;4.30;;;8.60;99.90;;;;;;4998338;28;20313;-70
2023/02/05 10:50:28;;;;;;;31.60;4.38;;;8.30;99.90;;;;;;4995862;28;20104;-70
2023/02/05 10:52:53;;;;;;;24.42;3.95;;;8.00;99.90;;;;;;5014969;28;20107;-71
2023/02/05 10:55:19;;;;;;;22.30;3.35;;;7.90;99.90;;;;;;4996920;28;20120;-69
2023/02/05 10:57:45;;;;;;;19.80;3.67;;;7.70;99.90;;;;;;5000344;28;20046;-69
2023/02/05 11:00:21;;;;;;;23.85;3.70;;;7.70;99.90;;;;;;5016591;28;20038;-70
2023/02/05 11:02:57;;;;;;;13.52;2.60;;;7.80;99.90;;;;;;4981660;28;20053;-70
2023/02/05 11:05:39;;;;;;;15.65;2.92;;;7.90;99.90;;;;;;4995201;28;20072;-70
2023/02/05 11:08:32;;;;;;;13.02;1.95;;;7.90;99.90;;;;;;4996556;28;20042;-70
2023/02/05 11:10:58;;;;;;;7.47;1.30;;;7.90;99.90;;;;;;4991109;28;20111;-70
2023/02/05 11:13:24;;;;;;;12.90;1.88;;;7.80;99.90;;;;;;4999204;28;20077;-69
2023/02/05 11:16:07;;;;;;;14.57;2.45;;;7.70;99.90;;;;;;4998255;28;20049;-70
2023/02/05 11:18:43;;;;;;;14.15;2.38;;;7.80;99.90;;;;;;4982618;28;20128;-69
2023/02/05 11:21:10;;;;;;;15.82;1.95;;;8.10;99.90;;;;;;5014522;28;20037;-69
2023/02/05 11:23:41;;;;;;;17.08;2.42;;;8.10;99.90;;;;;;4996649;28;20034;-70
2023/02/05 11:26:19;;;;;;;14.70;2.67;;;8.00;99.90;;;;;;5013899;28;20042;-69
2023/02/05 11:28:46;;;;;;;16.67;2.75;;;8.00;99.90;;;;;;4996604;28;20049;-69
2023/02/05 11:31:32;;;;;;;21.00;3.22;;;8.00;99.90;;;;;;5011447;28;20038;-69
2023/02/05 11:34:06;;;;;;;19.70;3.33;;;8.10;99.90;;;;;;4995936;28;20046;-68
2023/02/05 11:36:32;;;;;;;17.42;3.63;;;8.20;99.90;;;;;;5010882;28;20049;-69
2023/02/05 11:38:58;;;;;;;22.90;4.00;;;8.20;99.90;;;;;;5013987;28;20083;-68
2023/02/05 11:41:51;;;;;;;27.67;3.70;;;8.20;99.90;;;;;;5014420;28;20093;-69
2023/02/05 11:44:25;;;;;;;24.38;3.90;;;8.20;99.90;;;;;;4996466;28;20069;-69
2023/02/05 11:46:56;;;;;;;22.15;3.70;;;8.10;99.90;;;;;;4996437;28;20513;-69
2023/02/05 11:49:33;;;;;;;26.40;4.47;;;8.00;99.90;;;;;;5009632;28;20129;-69
2023/02/05 11:52:01;;;;;;;29.00;4.45;;;8.10;99.90;;;;;;5012244;28;20089;-69
2023/02/05 11:54:29;;;;;;;27.63;4.25;;;8.00;99.90;;;;;;5013348;28;20048;-69
2023/02/05 11:57:21;;;;;;;27.88;4.90;;;8.10;99.90;;;;;;5014567;28;20038;-68
2023/02/05 12:00:18;;;;;;;23.58;3.50;;;8.10;99.90;;;;;;4966425;28;20100;-68
2023/02/05 12:02:49;;;;;;;28.80;4.28;;;8.10;99.90;;;;;;5013746;28;20121;-69
2023/02/05 12:05:15;;;;;;;26.85;4.05;;;8.10;99.90;;;;;;4993685;28;20498;-69
2023/02/05 12:07:43;;;;;;;23.75;4.57;;;8.10;99.90;;;;;;4995907;28;20060;-69
2023/02/05 12:10:17;;;;;;;30.08;5.20;;;8.10;99.90;;;;;;5003518;28;20065;-69
2023/02/05 12:13:00;;;;;;;19.05;3.97;;;8.10;99.90;;;;;;4995928;28;20095;-70
2023/02/05 12:15:33;;;;;;;24.27;4.00;;;8.10;99.90;;;;;;5004646;28;20114;-69
2023/02/05 12:18:02;;;;;;;25.50;4.93;;;8.00;99.90;;;;;;5010928;28;20500;-69
2023/02/05 12:20:57;;;;;;;26.95;4.90;;;8.00;99.90;;;;;;5012490;28;20137;-69
2023/02/05 12:23:41;;;;;;;28.17;5.15;;;8.10;99.90;;;;;;4994148;28;20077;-70
2023/02/05 12:26:34;;;;;;;24.63;4.25;;;8.10;99.90;;;;;;4995501;28;20064;-69
2023/02/05 12:29:20;;;;;;;23.13;3.75;;;8.20;99.90;;;;;;4995460;28;20038;-69
2023/02/05 12:31:58;;;;;;;20.90;3.30;;;8.20;99.90;;;;;;5010895;28;20050;-67
2023/02/05 12:34:46;;;;;;;22.85;4.25;;;8.20;99.90;;;;;;4991251;28;20077;-68
2023/02/05 12:37:59;;;;;;;26.27;4.20;;;8.20;99.90;;;;;;5013392;28;20104;-69
2023/02/05 12:40:54;;;;;;;25.08;3.80;;;8.30;99.90;;;;;;4991525;28;20042;-68
2023/02/05 12:43:57;;;;;;;25.83;3.95;;;8.40;99.90;;;;;;4995713;28;20061;-69
2023/02/05 12:46:49;;;;;;;19.85;3.40;;;8.40;99.90;;;;;;4971916;28;20057;-68
2023/02/05 12:50:00;;;;;;;19.38;3.90;;;8.50;99.90;;;;;;5011567;28;20563;-68
2023/02/05 12:52:52;;;;;;;27.55;5.70;;;8.50;99.90;;;;;;4969050;28;20075;-68
2023/02/05 12:55:45;;;;;;;21.95;3.35;;;8.50;99.90;;;;;;5004965;28;20054;-69
2023/02/05 12:58:14;;;;;;;25.88;4.07;;;8.50;99.90;;;;;;4994398;28;20038;-68
2023/02/05 13:00:46;;;;;;;26.52;4.50;;;8.50;99.90;;;;;;5011699;28;20054;-68
2023/02/05 13:03:27;;;;;;;21.48;4.32;;;8.60;99.90;;;;;;4994188;28;20038;-68
2023/02/05 13:06:14;;;;;;;26.13;4.15;;;8.70;99.90;;;;;;4992742;28;20137;-68
2023/02/05 13:08:45;;;;;;;24.23;4.97;;;8.60;99.90;;;;;;4994208;28;20093;-68